Time;durP1;ratioP1;P1;durP2;ratioP2;P2;SDS_P1;SDS_P2;PMS_P1;PMS_P2;Temp;Humidity;BMP_temperature;BMP_pressure;BME280_temperature;BME280_humidity;BME280_pressure;Samples;Min_cycle;Max_cycle;Signal;HPM_P1;HPM_P2
2022/01/19 00:01:31;;;;;;;47.37;19.20;;;5.10;1.00;;;;;;6211971;23;20374;-47
2022/01/19 00:03:57;;;;;;;57.50;19.80;;;5.10;1.00;;;;;;6212521;23;20405;-47
2022/01/19 00:06:22;;;;;;;45.20;18.77;;;5.10;1.00;;;;;;6211485;23;20393;-47
2022/01/19 00:08:49;;;;;;;41.03;17.57;;;5.10;1.00;;;;;;6211568;23;20174;-47
2022/01/19 00:11:15;;;;;;;43.50;19.03;;;5.10;1.00;;;;;;6212078;23;20178;-47
2022/01/19 00:13:40;;;;;;;43.67;18.30;;;5.10;1.00;;;;;;6211616;23;20370;-47
2022/01/19 00:16:06;;;;;;;48.03;19.67;;;5.10;1.00;;;;;;6212282;23;20899;-47
2022/01/19 00:18:32;;;;;;;44.40;17.60;;;5.10;1.00;;;;;;6211141;23;20159;-47
2022/01/19 00:20:57;;;;;;;38.27;16.90;;;5.00;1.00;;;;;;6212163;23;20756;-47
2022/01/19 00:23:24;;;;;;;53.47;19.93;;;5.00;99.90;;;;;;6212067;23;20143;-47
2022/01/19 00:25:52;;;;;;;37.57;17.93;;;5.00;99.90;;;;;;6185207;23;20186;-47
2022/01/19 00:28:17;;;;;;;56.70;21.20;;;5.00;99.90;;;;;;6185534;23;20429;-47
2022/01/19 00:30:44;;;;;;;52.37;19.77;;;5.00;99.90;;;;;;6211192;23;20420;-47
2022/01/19 00:33:10;;;;;;;55.70;22.20;;;5.00;99.90;;;;;;6210840;23;20158;-57
2022/01/19 00:35:36;;;;;;;40.27;18.67;;;5.00;1.00;;;;;;6211816;23;21058;-57
2022/01/19 00:38:03;;;;;;;47.57;20.80;;;5.00;99.90;;;;;;6185906;23;20186;-56
2022/01/19 00:40:29;;;;;;;47.20;20.90;;;5.00;99.90;;;;;;6211586;23;20373;-56
2022/01/19 00:42:54;;;;;;;38.70;18.77;;;5.00;99.90;;;;;;6211242;23;20858;-57
2022/01/19 00:45:21;;;;;;;47.03;21.23;;;5.00;99.90;;;;;;6211567;23;20193;-57
2022/01/19 00:47:46;;;;;;;43.27;18.90;;;5.00;99.90;;;;;;6212407;23;20143;-55
2022/01/19 00:50:16;;;;;;;39.43;19.13;;;5.00;99.90;;;;;;6211606;23;21099;-56
2022/01/19 00:52:41;;;;;;;39.53;19.03;;;5.00;99.90;;;;;;6211444;23;20577;-57
2022/01/19 00:55:09;;;;;;;39.37;18.30;;;4.90;99.90;;;;;;6211919;23;20393;-57
2022/01/19 00:57:35;;;;;;;39.67;19.60;;;4.90;99.90;;;;;;6211639;23;20456;-56
2022/01/19 01:00:03;;;;;;;41.93;17.57;;;4.90;1.00;;;;;;6212215;23;20384;-56
2022/01/19 01:02:31;;;;;;;47.17;20.40;;;4.90;1.00;;;;;;6211502;23;20386;-57
2022/01/19 01:04:56;;;;;;;49.20;20.00;;;4.80;1.00;;;;;;6210882;23;20816;-56
2022/01/19 01:07:22;;;;;;;47.73;19.30;;;4.90;1.00;;;;;;6211651;23;20408;-57
2022/01/19 01:09:47;;;;;;;45.90;20.23;;;4.90;1.00;;;;;;6211874;23;20192;-58
2022/01/19 01:12:20;;;;;;;47.67;20.40;;;4.90;1.00;;;;;;6210907;23;20178;-57
2022/01/19 01:20:15;;;;;;;49.90;21.73;;;4.90;99.90;;;;;;6211831;23;20372;-56
2022/01/19 01:22:42;;;;;;;51.00;21.53;;;4.90;99.90;;;;;;6211060;23;20416;-57
2022/01/19 01:25:08;;;;;;;56.80;23.10;;;4.90;99.90;;;;;;6211092;23;20396;-56
2022/01/19 01:27:34;;;;;;;52.83;24.13;;;4.90;1.00;;;;;;6211192;23;20366;-56
2022/01/19 01:29:59;;;;;;;49.27;22.33;;;4.90;1.00;;;;;;6211529;23;20373;-56
2022/01/19 01:32:25;;;;;;;55.10;23.23;;;5.00;99.90;;;;;;6211532;23;20186;-56
2022/01/19 01:34:52;;;;;;;65.10;24.93;;;4.90;99.90;;;;;;6184286;23;20584;-56
2022/01/19 01:37:19;;;;;;;56.37;23.87;;;4.90;99.90;;;;;;6211157;23;20821;-57
2022/01/19 01:39:45;;;;;;;53.43;22.87;;;4.90;1.00;;;;;;6210955;23;20452;-60
2022/01/19 01:42:12;;;;;;;52.57;22.77;;;4.90;1.00;;;;;;6210901;23;20709;-57
2022/01/19 01:44:39;;;;;;;68.30;26.97;;;4.90;1.00;;;;;;6211117;23;20867;-57
2022/01/19 01:47:06;;;;;;;68.97;28.90;;;4.90;66.40;;;;;;6211038;23;20780;-56
2022/01/19 01:54:51;;;;;;;68.93;29.00;;;4.80;1.00;;;;;;6211545;23;21220;-47
2022/01/19 01:57:16;;;;;;;64.93;27.70;;;4.90;1.00;;;;;;6211336;23;20374;-47
2022/01/19 01:59:42;;;;;;;71.00;27.93;;;4.90;50.00;;;;;;6210664;23;20197;-55
2022/01/19 02:02:08;;;;;;;65.03;26.80;;;4.90;1.00;;;;;;6211019;23;20212;-56
2022/01/19 02:04:37;;;;;;;63.07;25.57;;;4.80;99.90;;;;;;6210757;23;20284;-56
2022/01/19 02:07:30;;;;;;;62.20;26.87;;;4.80;1.00;;;;;;6211360;23;20162;-56
2022/01/19 02:09:57;;;;;;;63.50;27.00;;;4.80;1.00;;;;;;6210679;23;20471;-56
2022/01/19 02:26:00;;;;;;;73.10;29.83;;;4.70;1.00;;;;;;6221330;23;20381;-57
2022/01/19 02:31:46;;;;;;;71.97;26.50;;;4.60;1.00;;;;;;6211108;23;20424;-56
2022/01/19 02:41:59;;;;;;;56.73;22.07;;;4.50;1.00;;;;;;6211365;23;20242;-56
2022/01/19 02:44:38;;;;;;;58.20;23.37;;;4.50;68.30;;;;;;6210815;23;20428;-56
2022/01/19 02:49:42;;;;;;;56.93;23.63;;;4.50;99.90;;;;;;6220704;23;20374;-56
2022/01/19 02:52:08;;;;;;;51.57;21.07;;;4.50;99.90;;;;;;6211008;23;20439;-56
2022/01/19 02:54:34;;;;;;;61.13;19.10;;;4.50;1.00;;;;;;6212581;23;20178;-56
2022/01/19 02:57:01;;;;;;;43.53;20.03;;;4.50;99.90;;;;;;6212085;23;20370;-56
2022/01/19 02:59:49;;;;;;;43.97;19.97;;;4.50;1.00;;;;;;6213081;23;20481;-56
2022/01/19 03:10:27;;;;;;;37.13;16.17;;;4.40;99.90;;;;;;6212504;23;20376;-56
2022/01/19 03:12:52;;;;;;;46.93;16.33;;;4.40;94.70;;;;;;6213229;23;20456;-55
2022/01/19 03:15:18;;;;;;;37.33;15.60;;;4.40;96.60;;;;;;6212324;23;20162;-56
2022/01/19 03:17:43;;;;;;;46.33;15.53;;;4.40;99.90;;;;;;6212332;23;20142;-56
2022/01/19 03:20:10;;;;;;;49.63;16.37;;;4.40;99.90;;;;;;6212694;23;20143;-56
2022/01/19 03:22:56;;;;;;;41.07;16.43;;;4.40;1.00;;;;;;6212111;23;20162;-56
2022/01/19 03:25:21;;;;;;;48.17;17.60;;;4.40;99.90;;;;;;6212759;23;20416;-55
2022/01/19 03:27:47;;;;;;;47.10;16.50;;;4.30;99.90;;;;;;6212298;23;20891;-56
2022/01/19 03:30:14;;;;;;;42.43;16.07;;;4.30;99.90;;;;;;6212375;23;20237;-52
2022/01/19 03:32:40;;;;;;;44.50;16.70;;;4.30;1.00;;;;;;6212458;23;20249;-56
2022/01/19 03:35:06;;;;;;;44.97;16.13;;;4.20;1.00;;;;;;6212188;23;20428;-56
2022/01/19 03:37:32;;;;;;;40.20;15.83;;;4.20;99.90;;;;;;6185270;23;20189;-56
2022/01/19 03:39:57;;;;;;;45.27;17.03;;;4.20;1.00;;;;;;6213144;23;20370;-57
2022/01/19 03:42:23;;;;;;;41.93;15.90;;;4.30;1.00;;;;;;6211844;23;20562;-56
2022/01/19 03:44:48;;;;;;;39.93;14.50;;;4.30;99.90;;;;;;6212204;23;20198;-55
2022/01/19 03:47:14;;;;;;;44.37;15.53;;;4.30;99.90;;;;;;6185716;23;20166;-56
2022/01/19 03:49:39;;;;;;;38.60;14.13;;;4.30;1.00;;;;;;6212084;23;20157;-56
2022/01/19 03:52:06;;;;;;;34.90;13.17;;;4.30;1.00;;;;;;6211947;23;20182;-56
2022/01/19 03:54:37;;;;;;;40.40;14.70;;;4.30;1.00;;;;;;6211769;23;20173;-56
2022/01/19 03:57:03;;;;;;;38.43;15.13;;;4.30;1.00;;;;;;6212025;23;20437;-56
2022/01/19 03:59:29;;;;;;;33.93;15.63;;;4.20;99.90;;;;;;6212085;23;20378;-56
2022/01/19 04:01:57;;;;;;;39.33;16.03;;;4.30;99.90;;;;;;6211957;23;20685;-56
2022/01/19 04:09:32;;;;;;;32.73;14.40;;;4.30;1.00;;;;;;6221919;23;20366;-57
2022/01/19 04:11:58;;;;;;;32.83;13.60;;;4.20;99.90;;;;;;6211915;23;20456;-55
2022/01/19 04:14:25;;;;;;;37.40;14.70;;;4.10;1.00;;;;;;6212249;23;20392;-56
2022/01/19 04:16:53;;;;;;;38.67;15.60;;;4.10;99.90;;;;;;6212354;23;20135;-56
2022/01/19 04:19:25;;;;;;;37.37;14.60;;;4.00;99.90;;;;;;6211480;23;20484;-56
2022/01/19 04:21:51;;;;;;;36.47;15.57;;;4.10;1.00;;;;;;6211815;23;20432;-67
2022/01/19 04:24:18;;;;;;;40.03;15.30;;;4.10;1.00;;;;;;6211837;23;20511;-56
2022/01/19 04:26:46;;;;;;;40.50;14.53;;;4.00;1.00;;;;;;6211805;23;20444;-56
2022/01/19 04:29:11;;;;;;;44.73;14.87;;;4.00;99.90;;;;;;6212112;23;20441;-56
2022/01/19 04:31:37;;;;;;;34.30;15.10;;;4.00;1.00;;;;;;6211880;23;20471;-55
2022/01/19 04:34:05;;;;;;;32.57;15.00;;;4.00;1.00;;;;;;6211693;23;20154;-56
2022/01/19 04:36:58;;;;;;;33.60;13.60;;;4.10;17.20;;;;;;6211444;23;20366;-56
2022/01/19 04:44:56;;;;;;;40.23;14.13;;;4.10;99.90;;;;;;6210810;23;20739;-56
2022/01/19 04:48:07;;;;;;;35.30;14.93;;;4.10;1.00;;;;;;6211762;23;20374;-56
2022/01/19 05:01:41;;;;;;;36.93;13.40;;;4.00;1.00;;;;;;6211197;23;20385;-56
2022/01/19 05:06:40;;;;;;;32.83;14.37;;;4.00;1.00;;;;;;6211190;23;20378;-55
2022/01/19 05:09:24;;;;;;;37.07;14.20;;;3.90;99.90;;;;;;6211595;23;20883;-56
2022/01/19 05:14:34;;;;;;;39.13;14.77;;;4.00;97.60;;;;;;6211504;23;20416;-56
2022/01/19 05:17:00;;;;;;;44.87;14.20;;;4.00;93.40;;;;;;6211149;23;20366;-56
2022/01/19 05:19:25;;;;;;;34.33;14.93;;;4.00;99.90;;;;;;6211109;23;20219;-56
2022/01/19 05:21:51;;;;;;;30.27;14.67;;;4.00;99.90;;;;;;6210865;23;20155;-57
2022/01/19 05:24:16;;;;;;;30.60;13.60;;;4.00;1.00;;;;;;6211135;23;20166;-56
2022/01/19 05:26:42;;;;;;;38.57;13.07;;;4.00;99.90;;;;;;6210727;23;20150;-56
2022/01/19 05:29:08;;;;;;;41.10;13.70;;;4.00;1.00;;;;;;6211182;23;20163;-55
2022/01/19 05:31:33;;;;;;;32.67;13.40;;;4.00;74.00;;;;;;6211260;23;20178;-56
2022/01/19 05:33:59;;;;;;;37.80;12.20;;;4.00;99.90;;;;;;6210721;23;20161;-57
2022/01/19 05:36:24;;;;;;;40.10;13.60;;;4.00;99.90;;;;;;6211352;23;20147;-56
2022/01/19 05:38:50;;;;;;;39.63;12.60;;;4.00;87.00;;;;;;6211537;23;20572;-55
2022/01/19 05:41:16;;;;;;;35.60;13.57;;;4.00;99.90;;;;;;6210788;23;20190;-56
2022/01/19 05:43:41;;;;;;;38.00;14.30;;;4.00;99.90;;;;;;6210882;23;20173;-57
2022/01/19 05:46:07;;;;;;;37.30;12.53;;;4.10;99.90;;;;;;6210852;23;20300;-56
2022/01/19 05:48:32;;;;;;;36.63;13.80;;;4.10;99.90;;;;;;6210857;23;20254;-56
2022/01/19 05:50:58;;;;;;;35.40;13.60;;;4.10;99.90;;;;;;6211312;23;20193;-56
2022/01/19 05:53:23;;;;;;;32.60;12.07;;;4.10;1.00;;;;;;6210868;23;20154;-56
2022/01/19 05:55:49;;;;;;;35.93;14.40;;;4.10;1.00;;;;;;6211482;23;20149;-56
2022/01/19 05:58:15;;;;;;;30.63;13.07;;;4.10;1.00;;;;;;6211298;23;20154;-56
2022/01/19 06:00:40;;;;;;;26.33;12.03;;;4.10;8.90;;;;;;6211194;23;20143;-56
2022/01/19 06:03:06;;;;;;;37.13;14.03;;;4.10;1.00;;;;;;6211523;23;20241;-56
2022/01/19 06:05:33;;;;;;;32.80;13.40;;;4.20;1.00;;;;;;6210953;23;20153;-56
2022/01/19 06:08:28;;;;;;;30.33;13.00;;;4.10;99.90;;;;;;6210960;23;20453;-56
2022/01/19 06:10:55;;;;;;;48.90;16.60;;;4.10;1.00;;;;;;6210797;23;20417;-56
2022/01/19 06:13:22;;;;;;;43.87;15.80;;;4.10;36.20;;;;;;6211645;23;20393;-56
2022/01/19 06:15:48;;;;;;;49.83;17.83;;;4.10;1.00;;;;;;6210839;23;20381;-56
2022/01/19 06:18:15;;;;;;;53.13;19.07;;;4.10;1.00;;;;;;6210986;23;20951;-56
2022/01/19 06:20:41;;;;;;;61.97;21.80;;;4.20;1.00;;;;;;6211377;23;20396;-56
2022/01/19 06:23:07;;;;;;;58.67;21.80;;;4.20;1.00;;;;;;6211151;23;20370;-56
2022/01/19 06:25:32;;;;;;;50.10;20.20;;;4.20;1.00;;;;;;6211035;23;20381;-56
2022/01/19 06:27:59;;;;;;;69.03;20.97;;;4.20;1.00;;;;;;6211689;23;21020;-56
2022/01/19 06:30:24;;;;;;;59.53;21.57;;;4.20;1.00;;;;;;6213012;23;20178;-54
2022/01/19 06:32:50;;;;;;;62.47;20.47;;;4.20;1.00;;;;;;6213256;23;20377;-56
2022/01/19 06:35:16;;;;;;;70.87;22.47;;;4.30;99.90;;;;;;6212685;23;20155;-56
2022/01/19 06:37:42;;;;;;;61.17;22.80;;;4.30;99.90;;;;;;6212529;23;20369;-56
2022/01/19 06:40:10;;;;;;;67.23;22.80;;;4.30;99.90;;;;;;6212940;23;20178;-57
2022/01/19 06:42:36;;;;;;;59.60;23.47;;;4.40;99.90;;;;;;6213149;23;20146;-56
2022/01/19 06:45:03;;;;;;;66.27;23.40;;;4.40;1.00;;;;;;6212437;23;20459;-56
2022/01/19 06:47:32;;;;;;;66.40;25.50;;;4.40;26.90;;;;;;6212943;23;20467;-55
2022/01/19 06:49:58;;;;;;;59.67;23.33;;;4.40;1.00;;;;;;6212693;23;20935;-56
2022/01/19 06:52:24;;;;;;;65.63;24.90;;;4.40;1.00;;;;;;6212736;23;20507;-47
2022/01/19 06:54:50;;;;;;;71.80;24.47;;;4.40;99.90;;;;;;6186255;23;20887;-48
2022/01/19 06:57:15;;;;;;;66.93;26.07;;;4.40;1.00;;;;;;6213138;23;20439;-47
2022/01/19 06:59:41;;;;;;;74.60;27.33;;;4.50;1.00;;;;;;6212444;23;20178;-47
2022/01/19 07:02:07;;;;;;;73.17;28.40;;;4.50;99.90;;;;;;6212568;23;20245;-47
2022/01/19 07:04:33;;;;;;;77.60;28.10;;;4.50;99.90;;;;;;6212925;23;20157;-48
2022/01/19 07:06:58;;;;;;;67.10;26.20;;;4.40;1.00;;;;;;6212945;23;20739;-48
2022/01/19 07:09:24;;;;;;;69.13;26.73;;;4.40;99.90;;;;;;6212437;23;20479;-47
2022/01/19 07:11:50;;;;;;;76.80;26.87;;;4.40;1.00;;;;;;6212658;23;20194;-48
2022/01/19 07:14:17;;;;;;;71.43;27.70;;;4.40;99.90;;;;;;6212183;23;20135;-48
2022/01/19 07:16:44;;;;;;;66.90;27.27;;;4.50;1.00;;;;;;6213010;23;20362;-48
2022/01/19 07:19:12;;;;;;;80.77;28.10;;;4.50;99.90;;;;;;6212684;23;20685;-48
2022/01/19 07:21:37;;;;;;;69.67;28.30;;;4.50;49.20;;;;;;6212099;23;20389;-48
2022/01/19 07:24:03;;;;;;;78.80;29.60;;;4.50;1.00;;;;;;6211830;23;20390;-48
2022/01/19 07:26:29;;;;;;;80.97;28.80;;;4.50;1.00;;;;;;6212684;23;20150;-48
2022/01/19 07:28:54;;;;;;;74.00;27.07;;;4.50;1.00;;;;;;6212543;23;20632;-48
2022/01/19 07:31:20;;;;;;;69.77;29.17;;;4.50;99.90;;;;;;6212942;23;20186;-48
2022/01/19 07:33:45;;;;;;;73.40;30.07;;;4.40;99.90;;;;;;6212289;23;20143;-48
2022/01/19 07:36:11;;;;;;;75.00;29.43;;;4.50;1.00;;;;;;6212400;23;20322;-48
2022/01/19 07:38:37;;;;;;;75.57;28.50;;;4.50;1.00;;;;;;6212728;23;20229;-48
2022/01/19 07:41:02;;;;;;;66.97;28.27;;;4.50;1.00;;;;;;6212062;23;20514;-48
2022/01/19 07:43:28;;;;;;;68.80;28.20;;;4.50;1.00;;;;;;6212582;23;20539;-48
2022/01/19 07:45:53;;;;;;;85.40;28.80;;;4.60;1.00;;;;;;6211939;23;20244;-48
2022/01/19 07:48:19;;;;;;;67.37;28.40;;;4.60;99.90;;;;;;6212241;23;20146;-48
2022/01/19 07:50:44;;;;;;;56.77;25.73;;;4.60;99.90;;;;;;6212486;23;20198;-49
2022/01/19 07:53:10;;;;;;;77.43;27.23;;;4.60;99.90;;;;;;6211418;23;20181;-48
2022/01/19 07:55:36;;;;;;;69.03;26.80;;;4.60;99.90;;;;;;6209553;23;20197;-47
2022/01/19 07:58:01;;;;;;;65.80;25.60;;;4.60;99.90;;;;;;6211052;23;20731;-48
2022/01/19 08:00:28;;;;;;;74.60;29.40;;;4.50;99.90;;;;;;6212002;23;20212;-47
2022/01/19 08:02:53;;;;;;;82.33;27.67;;;4.50;1.00;;;;;;6211766;23;20155;-47
2022/01/19 08:05:19;;;;;;;80.33;28.97;;;4.60;1.00;;;;;;6212152;23;20665;-48
2022/01/19 08:07:45;;;;;;;72.40;29.10;;;4.60;1.00;;;;;;6211393;23;20233;-48
2022/01/19 08:10:11;;;;;;;80.60;28.40;;;4.60;1.00;;;;;;6211691;23;20138;-47
2022/01/19 08:12:37;;;;;;;65.63;27.40;;;4.60;99.90;;;;;;6211812;23;20297;-47
2022/01/19 08:15:04;;;;;;;69.87;26.27;;;4.70;99.90;;;;;;6211574;23;20728;-47
2022/01/19 08:17:30;;;;;;;72.63;29.63;;;4.70;99.90;;;;;;6212102;23;20827;-47
2022/01/19 08:19:56;;;;;;;69.43;28.40;;;4.70;1.00;;;;;;6211527;23;20385;-47
2022/01/19 08:22:23;;;;;;;78.40;29.83;;;4.60;1.00;;;;;;6211764;23;20173;-48
2022/01/19 08:24:48;;;;;;;71.23;28.20;;;4.70;1.00;;;;;;6210811;23;20374;-56
2022/01/19 08:27:14;;;;;;;67.97;26.67;;;4.70;99.90;;;;;;6211976;23;20369;-56
2022/01/19 08:29:40;;;;;;;73.27;27.67;;;4.60;99.90;;;;;;6211718;23;20173;-57
2022/01/19 08:32:06;;;;;;;82.07;30.60;;;4.60;1.00;;;;;;6212150;23;20424;-57
2022/01/19 08:34:33;;;;;;;79.97;29.20;;;4.60;1.00;;;;;;6185188;23;20233;-57
2022/01/19 08:36:59;;;;;;;94.47;31.40;;;4.60;99.90;;;;;;6211351;23;20432;-55
2022/01/19 08:39:25;;;;;;;74.17;29.77;;;4.60;99.90;;;;;;6211805;23;20453;-56
2022/01/19 08:41:51;;;;;;;75.83;29.70;;;4.60;99.90;;;;;;6211519;23;20409;-53
2022/01/19 08:44:17;;;;;;;86.77;29.90;;;4.70;1.00;;;;;;6211563;23;20170;-56
2022/01/19 08:46:44;;;;;;;67.10;28.73;;;4.70;1.00;;;;;;6211426;23;20452;-56
2022/01/19 08:49:10;;;;;;;75.17;30.50;;;4.60;1.00;;;;;;6211287;23;20386;-56
2022/01/19 08:51:36;;;;;;;77.50;31.97;;;4.60;99.90;;;;;;6210743;23;20425;-56
2022/01/19 08:54:02;;;;;;;76.00;29.50;;;4.60;1.00;;;;;;6211344;23;20362;-56
2022/01/19 08:56:28;;;;;;;80.43;31.13;;;4.60;1.00;;;;;;6211330;23;20209;-57
2022/01/19 08:58:53;;;;;;;77.07;30.67;;;4.60;99.90;;;;;;6211122;23;20369;-56
2022/01/19 09:01:19;;;;;;;77.80;29.53;;;4.60;99.90;;;;;;6210825;23;20374;-56
2022/01/19 09:03:44;;;;;;;82.63;29.33;;;4.60;99.90;;;;;;6210962;23;20189;-56
2022/01/19 09:06:10;;;;;;;78.20;31.10;;;4.60;66.90;;;;;;6211790;23;20573;-56
2022/01/19 09:08:37;;;;;;;75.37;28.23;;;4.60;1.00;;;;;;6210477;23;20209;-56
2022/01/19 09:11:03;;;;;;;68.70;28.23;;;4.60;1.00;;;;;;6210656;23;20244;-56
2022/01/19 09:13:28;;;;;;;80.67;28.27;;;4.60;1.00;;;;;;6211255;23;20369;-56
2022/01/19 09:15:54;;;;;;;77.53;31.00;;;4.70;1.00;;;;;;6210612;23;20147;-56
2022/01/19 09:18:20;;;;;;;79.67;30.90;;;4.70;1.00;;;;;;6210918;23;20573;-56
2022/01/19 09:20:46;;;;;;;91.43;30.47;;;4.70;1.00;;;;;;6211113;23;20444;-56
2022/01/19 09:23:13;;;;;;;70.60;28.93;;;4.70;99.90;;;;;;6211083;23;20581;-56
2022/01/19 09:25:40;;;;;;;67.67;28.77;;;4.70;99.90;;;;;;6210659;23;20416;-57
2022/01/19 09:28:07;;;;;;;77.75;32.78;;;4.70;99.90;;;;;;6209981;23;20366;-56
2022/01/19 09:30:33;;;;;;;79.87;30.57;;;4.80;99.90;;;;;;6211150;23;20185;-57
2022/01/19 09:33:07;;;;;;;75.47;30.43;;;4.80;99.90;;;;;;6210965;23;20380;-57
2022/01/19 09:38:32;;;;;;;80.37;30.63;;;4.80;99.90;;;;;;6211438;23;20373;-56
2022/01/19 09:40:58;;;;;;;77.43;31.70;;;4.80;99.90;;;;;;6211144;23;21221;-57
2022/01/19 09:43:25;;;;;;;82.70;32.40;;;4.80;99.90;;;;;;6184620;23;20389;-57
2022/01/19 09:45:56;;;;;;;76.70;30.07;;;4.80;99.90;;;;;;6210779;23;20774;-58
2022/01/19 09:48:22;;;;;;;81.70;29.27;;;4.80;99.90;;;;;;6209833;23;20440;-57
2022/01/19 09:50:48;;;;;;;84.93;29.40;;;4.90;99.90;;;;;;6210970;23;20710;-58
2022/01/19 09:53:14;;;;;;;92.23;33.77;;;4.90;52.40;;;;;;6211522;23;20382;-56
2022/01/19 09:55:43;;;;;;;78.60;29.00;;;4.90;78.10;;;;;;6211119;23;20370;-57
2022/01/19 09:58:09;;;;;;;82.40;32.93;;;4.90;1.00;;;;;;6210601;23;20143;-56
2022/01/19 10:00:35;;;;;;;73.73;29.07;;;4.90;1.00;;;;;;6210386;23;20381;-57
2022/01/19 10:03:25;;;;;;;73.57;30.50;;;4.90;1.00;;;;;;6211710;23;20374;-57
2022/01/19 10:06:10;;;;;;;69.47;28.43;;;4.90;41.20;;;;;;6212665;23;20366;-57
2022/01/19 10:08:59;;;;;;;78.67;31.10;;;4.90;4.50;;;;;;6212695;23;20389;-56
2022/01/19 10:17:01;;;;;;;84.10;30.87;;;4.80;99.90;;;;;;6212901;23;20379;-57
2022/01/19 10:19:38;;;;;;;80.20;31.37;;;4.80;99.90;;;;;;6212670;23;20461;-56
2022/01/19 10:22:25;;;;;;;72.83;28.87;;;4.80;99.90;;;;;;6212565;23;20373;-56
2022/01/19 10:24:56;;;;;;;87.97;31.20;;;4.70;99.90;;;;;;6212496;23;20748;-57
2022/01/19 10:27:24;;;;;;;79.30;30.43;;;4.70;99.90;;;;;;6213474;23;20400;-57
2022/01/19 10:30:10;;;;;;;89.07;30.63;;;4.70;99.90;;;;;;6213146;23;20370;-56
2022/01/19 10:33:02;;;;;;;77.23;29.40;;;4.70;1.00;;;;;;6212824;23;20878;-55
2022/01/19 10:35:33;;;;;;;72.10;29.63;;;4.70;99.90;;;;;;6208798;23;20404;-55
2022/01/19 10:38:13;;;;;;;81.07;30.60;;;4.60;99.90;;;;;;6212731;23;20389;-56
2022/01/19 10:40:41;;;;;;;78.60;28.67;;;4.70;99.90;;;;;;6212793;23;20372;-57
2022/01/19 10:43:42;;;;;;;73.03;28.70;;;4.70;99.90;;;;;;6212749;23;20381;-58
2022/01/19 10:46:39;;;;;;;71.47;30.20;;;4.70;1.00;;;;;;6212326;23;21191;-57
2022/01/19 10:49:08;;;;;;;74.70;30.87;;;4.60;1.00;;;;;;6212818;23;20157;-56
2022/01/19 10:51:44;;;;;;;65.87;29.77;;;4.60;1.00;;;;;;6212196;23;20425;-56
2022/01/19 10:54:16;;;;;;;61.40;27.10;;;4.60;1.00;;;;;;6212583;23;20361;-58
2022/01/19 10:56:47;;;;;;;64.43;29.37;;;4.60;1.00;;;;;;6212765;23;20366;-57
2022/01/19 10:59:14;;;;;;;71.17;29.57;;;4.60;1.00;;;;;;6213141;23;20528;-57
2022/01/19 11:01:54;;;;;;;81.70;30.53;;;4.60;1.00;;;;;;6213256;23;20413;-57
2022/01/19 11:04:38;;;;;;;71.53;31.43;;;4.70;99.90;;;;;;6213848;23;20461;-57
2022/01/19 11:07:06;;;;;;;64.67;28.73;;;4.60;99.90;;;;;;6212477;23;20369;-56
2022/01/19 11:09:43;;;;;;;75.78;33.00;;;4.60;99.90;;;;;;6212282;23;20382;-56
2022/01/19 11:12:13;;;;;;;71.30;30.27;;;4.60;99.90;;;;;;6212294;23;20171;-56
2022/01/19 11:14:40;;;;;;;66.03;29.13;;;4.60;99.90;;;;;;6212201;23;20376;-57
2022/01/19 11:17:06;;;;;;;73.37;29.13;;;4.60;99.90;;;;;;6212939;23;20480;-54
2022/01/19 11:19:39;;;;;;;67.87;29.00;;;4.40;99.90;;;;;;6212199;23;20374;-57
2022/01/19 11:22:26;;;;;;;67.90;29.30;;;4.40;99.90;;;;;;6212583;23;20370;-56
2022/01/19 11:25:04;;;;;;;76.80;30.70;;;4.40;99.90;;;;;;6212531;23;20370;-57
2022/01/19 11:27:48;;;;;;;69.93;29.93;;;4.30;1.00;;;;;;6212216;23;20370;-57
2022/01/19 11:30:26;;;;;;;70.10;29.63;;;4.30;1.00;;;;;;6212719;23;20383;-56
2022/01/19 11:33:24;;;;;;;83.87;34.67;;;4.20;1.00;;;;;;6212325;23;20787;-56
2022/01/19 11:35:53;;;;;;;70.23;28.93;;;4.20;1.00;;;;;;6212552;23;20354;-60
2022/01/19 11:38:34;;;;;;;64.67;28.50;;;4.20;31.90;;;;;;6212713;23;20370;-56
2022/01/19 11:41:03;;;;;;;74.43;30.83;;;4.10;99.90;;;;;;6212407;23;20358;-56
2022/01/19 11:43:30;;;;;;;76.13;31.20;;;4.10;99.90;;;;;;6212166;23;20401;-56
2022/01/19 11:46:00;;;;;;;68.73;30.47;;;4.10;99.90;;;;;;6212520;23;20441;-56
2022/01/19 11:48:31;;;;;;;70.40;28.37;;;4.10;99.90;;;;;;6212559;23;20362;-58
2022/01/19 11:51:34;;;;;;;68.00;28.13;;;4.10;99.90;;;;;;6212772;23;20369;-57
2022/01/19 11:54:01;;;;;;;73.30;30.53;;;4.00;99.90;;;;;;6212117;23;20943;-57
2022/01/19 11:56:27;;;;;;;69.00;29.30;;;4.00;99.90;;;;;;6212585;23;20758;-57
2022/01/19 11:59:08;;;;;;;72.43;29.87;;;4.00;1.00;;;;;;6212751;23;20366;-57
2022/01/19 12:01:36;;;;;;;73.60;31.43;;;4.00;1.00;;;;;;6212414;23;20400;-47
2022/01/19 12:04:22;;;;;;;72.00;28.70;;;3.90;52.20;;;;;;6211986;23;20727;-47
2022/01/19 12:06:48;;;;;;;71.70;30.63;;;3.90;1.00;;;;;;6212364;23;20456;-46
2022/01/19 12:09:15;;;;;;;77.47;30.77;;;3.90;1.00;;;;;;6213012;23;21033;-47
2022/01/19 12:11:51;;;;;;;73.93;29.57;;;3.90;99.90;;;;;;6211976;23;20417;-46
2022/01/19 12:14:28;;;;;;;73.53;30.43;;;3.80;99.90;;;;;;6212061;23;20362;-47
2022/01/19 12:17:06;;;;;;;77.63;30.30;;;3.80;1.00;;;;;;6212537;23;20381;-47
2022/01/19 12:19:41;;;;;;;76.97;30.57;;;3.80;99.90;;;;;;6211920;23;20729;-46
2022/01/19 12:22:21;;;;;;;87.17;30.00;;;3.80;99.90;;;;;;6211744;23;20369;-47
2022/01/19 12:24:57;;;;;;;79.47;29.33;;;3.80;99.90;;;;;;6212158;23;20377;-46
2022/01/19 12:27:35;;;;;;;78.37;30.87;;;3.90;99.90;;;;;;6211522;23;20373;-46
2022/01/19 12:30:11;;;;;;;68.93;31.50;;;3.90;18.10;;;;;;6211991;23;20369;-47
2022/01/19 12:32:46;;;;;;;84.50;32.40;;;3.90;2.70;;;;;;6211909;23;20413;-46
2022/01/19 12:35:13;;;;;;;71.13;29.83;;;3.90;1.00;;;;;;6185557;23;20905;-48
2022/01/19 12:37:56;;;;;;;67.33;31.50;;;4.00;1.00;;;;;;6212405;23;20808;-47
2022/01/19 12:40:31;;;;;;;72.77;31.27;;;3.90;1.00;;;;;;6211088;23;20487;-51
2022/01/19 12:43:03;;;;;;;82.00;33.43;;;4.00;1.00;;;;;;6210698;23;20373;-46
2022/01/19 12:45:48;;;;;;;66.33;28.93;;;4.00;1.00;;;;;;6211276;23;20441;-47
2022/01/19 12:48:31;;;;;;;66.07;31.03;;;4.10;99.90;;;;;;6211327;23;20373;-47
2022/01/19 12:50:56;;;;;;;64.30;29.30;;;4.10;99.90;;;;;;6211235;23;20408;-47
2022/01/19 12:53:25;;;;;;;66.87;29.20;;;4.10;91.20;;;;;;6212068;23;20370;-47
2022/01/19 12:55:57;;;;;;;66.63;30.53;;;4.20;1.00;;;;;;6212244;23;20242;-46
2022/01/19 12:58:35;;;;;;;69.37;30.33;;;4.20;1.00;;;;;;6211941;23;20374;-53
2022/01/19 13:01:04;;;;;;;62.90;30.53;;;4.20;99.90;;;;;;6212075;23;20374;-46
2022/01/19 13:03:36;;;;;;;69.00;31.07;;;4.20;99.90;;;;;;6211171;23;20401;-47
2022/01/19 13:06:06;;;;;;;63.77;30.57;;;4.20;99.90;;;;;;6212073;23;20382;-47
2022/01/19 13:08:49;;;;;;;58.53;29.50;;;4.20;99.90;;;;;;6211691;23;20385;-47
2022/01/19 13:11:49;;;;;;;69.20;34.83;;;4.20;99.90;;;;;;6210135;23;20898;-46
2022/01/19 13:14:16;;;;;;;65.80;32.00;;;4.20;99.90;;;;;;6212293;23;20153;-46
2022/01/19 13:16:47;;;;;;;64.27;30.50;;;4.20;99.90;;;;;;6212129;23;20899;-46
2022/01/19 13:19:21;;;;;;;59.57;28.83;;;4.20;99.90;;;;;;6211743;23;20366;-47
2022/01/19 13:21:50;;;;;;;63.60;28.83;;;4.20;99.90;;;;;;6212108;23;20804;-46
2022/01/19 13:24:26;;;;;;;66.40;29.97;;;4.20;99.90;;;;;;6211929;23;20396;-47
2022/01/19 13:27:00;;;;;;;69.27;31.50;;;4.30;99.90;;;;;;6211542;23;20369;-46
2022/01/19 13:29:39;;;;;;;72.93;30.60;;;4.30;99.90;;;;;;6212002;23;20416;-46
2022/01/19 13:32:13;;;;;;;63.10;30.60;;;4.20;99.90;;;;;;6211127;23;20749;-46
2022/01/19 13:35:02;;;;;;;65.73;29.30;;;4.20;99.90;;;;;;6211573;23;20412;-46
2022/01/19 13:37:35;;;;;;;68.97;31.55;;;4.30;99.90;;;;;;6210999;23;20373;-46
2022/01/19 13:40:11;;;;;;;67.27;30.67;;;4.30;99.90;;;;;;6211202;23;20142;-48
2022/01/19 13:42:56;;;;;;;65.20;30.23;;;4.40;99.90;;;;;;6185084;23;20389;-46
2022/01/19 13:48:21;;;;;;;64.83;29.40;;;4.40;15.30;;;;;;6211737;23;20377;-47
2022/01/19 13:50:56;;;;;;;63.00;29.23;;;4.40;28.00;;;;;;6211414;23;20361;-46
2022/01/19 13:53:33;;;;;;;61.00;28.97;;;4.30;90.60;;;;;;6211720;23;20408;-47
2022/01/19 13:56:01;;;;;;;64.63;28.97;;;4.40;99.90;;;;;;6211506;23;20365;-46
2022/01/19 13:58:39;;;;;;;61.80;27.97;;;4.40;99.90;;;;;;6211754;23;20824;-47
2022/01/19 14:01:08;;;;;;;69.20;30.00;;;4.40;99.90;;;;;;6211289;23;20427;-47
2022/01/19 14:03:52;;;;;;;60.50;28.37;;;4.40;99.90;;;;;;6211343;23;20377;-46
2022/01/19 14:06:22;;;;;;;69.60;29.83;;;4.40;99.90;;;;;;6211231;23;20370;-46
2022/01/19 14:08:48;;;;;;;78.63;32.77;;;4.40;99.90;;;;;;6211383;23;20380;-47
2022/01/19 14:11:23;;;;;;;72.77;31.70;;;4.40;99.90;;;;;;6184456;23;20919;-47
2022/01/19 14:14:26;;;;;;;73.67;29.30;;;4.40;99.90;;;;;;6211475;23;20150;-46
2022/01/19 14:16:55;;;;;;;65.80;31.37;;;4.40;99.90;;;;;;6164029;23;20393;-47
2022/01/19 14:19:28;;;;;;;65.33;28.13;;;4.40;99.90;;;;;;6210531;23;20967;-46